sensor_id;sensor_type;location;lat;lon;timestamp;P1;durP1;ratioP1;P2;durP2;ratioP2
20340;SDS011;10328;50.042;8.238;2022-10-23T00:01:14;1.40;;;1.00;;
20340;SDS011;10328;50.042;8.238;2022-10-23T00:03:42;1.23;;;1.10;;
20340;SDS011;10328;50.042;8.238;2022-10-23T00:06:09;2.20;;;1.23;;
20340;SDS011;10328;50.042;8.238;2022-10-23T00:08:36;1.27;;;1.10;;
20340;SDS011;10328;50.042;8.238;2022-10-23T00:11:10;1.20;;;1.10;;
20340;SDS011;10328;50.042;8.238;2022-10-23T00:13:38;1.00;;;0.83;;
20340;SDS011;10328;50.042;8.238;2022-10-23T00:16:05;1.27;;;1.10;;
20340;SDS011;10328;50.042;8.238;2022-10-23T00:18:32;0.87;;;0.83;;
20340;SDS011;10328;50.042;8.238;2022-10-23T00:20:59;1.20;;;1.00;;
20340;SDS011;10328;50.042;8.238;2022-10-23T00:23:25;1.27;;;1.10;;
20340;SDS011;10328;50.042;8.238;2022-10-23T00:25:51;1.20;;;1.10;;
20340;SDS011;10328;50.042;8.238;2022-10-23T00:28:18;1.30;;;1.20;;
20340;SDS011;10328;50.042;8.238;2022-10-23T00:30:44;0.90;;;0.90;;
20340;SDS011;10328;50.042;8.238;2022-10-23T00:33:10;1.00;;;0.90;;
20340;SDS011;10328;50.042;8.238;2022-10-23T00:35:40;1.57;;;1.20;;
20340;SDS011;10328;50.042;8.238;2022-10-23T00:38:07;1.10;;;1.00;;
20340;SDS011;10328;50.042;8.238;2022-10-23T00:40:34;1.17;;;1.00;;
20340;SDS011;10328;50.042;8.238;2022-10-23T00:43:01;1.03;;;0.93;;
20340;SDS011;10328;50.042;8.238;2022-10-23T00:45:28;1.37;;;1.20;;
20340;SDS011;10328;50.042;8.238;2022-10-23T00:48:01;1.43;;;1.10;;
20340;SDS011;10328;50.042;8.238;2022-10-23T00:50:29;1.10;;;1.00;;
20340;SDS011;10328;50.042;8.238;2022-10-23T00:52:58;1.50;;;1.20;;
20340;SDS011;10328;50.042;8.238;2022-10-23T00:55:26;0.90;;;0.90;;
20340;SDS011;10328;50.042;8.238;2022-10-23T00:57:53;1.23;;;1.00;;
20340;SDS011;10328;50.042;8.238;2022-10-23T01:00:24;0.97;;;0.93;;
20340;SDS011;10328;50.042;8.238;2022-10-23T01:02:52;1.27;;;1.10;;
20340;SDS011;10328;50.042;8.238;2022-10-23T01:05:19;1.73;;;1.10;;
20340;SDS011;10328;50.042;8.238;2022-10-23T01:07:54;1.13;;;1.00;;
20340;SDS011;10328;50.042;8.238;2022-10-23T01:10:31;1.30;;;1.10;;
20340;SDS011;10328;50.042;8.238;2022-10-23T01:13:01;1.93;;;1.00;;
20340;SDS011;10328;50.042;8.238;2022-10-23T01:21:37;1.30;;;1.03;;
20340;SDS011;10328;50.042;8.238;2022-10-23T01:29:19;3.77;;;1.73;;
20340;SDS011;10328;50.042;8.238;2022-10-23T01:31:59;5.03;;;2.33;;
20340;SDS011;10328;50.042;8.238;2022-10-23T01:34:48;2.93;;;2.23;;
20340;SDS011;10328;50.042;8.238;2022-10-23T01:37:22;7.73;;;2.37;;
20340;SDS011;10328;50.042;8.238;2022-10-23T01:39:52;5.40;;;2.47;;
20340;SDS011;10328;50.042;8.238;2022-10-23T01:42:21;5.33;;;2.63;;
20340;SDS011;10328;50.042;8.238;2022-10-23T01:45:04;9.30;;;2.90;;
20340;SDS011;10328;50.042;8.238;2022-10-23T01:47:34;9.23;;;2.30;;
20340;SDS011;10328;50.042;8.238;2022-10-23T01:50:01;8.20;;;2.27;;
20340;SDS011;10328;50.042;8.238;2022-10-23T01:52:29;4.03;;;2.23;;
20340;SDS011;10328;50.042;8.238;2022-10-23T01:54:57;5.20;;;2.37;;
20340;SDS011;10328;50.042;8.238;2022-10-23T01:57:25;7.73;;;2.47;;
20340;SDS011;10328;50.042;8.238;2022-10-23T02:00:00;3.33;;;2.30;;
20340;SDS011;10328;50.042;8.238;2022-10-23T02:02:35;4.60;;;2.30;;
20340;SDS011;10328;50.042;8.238;2022-10-23T02:05:23;5.67;;;2.30;;
20340;SDS011;10328;50.042;8.238;2022-10-23T02:07:50;9.80;;;2.70;;
20340;SDS011;10328;50.042;8.238;2022-10-23T02:10:17;3.70;;;2.00;;
20340;SDS011;10328;50.042;8.238;2022-10-23T02:12:56;6.17;;;2.40;;
20340;SDS011;10328;50.042;8.238;2022-10-23T02:15:40;5.47;;;2.50;;
20340;SDS011;10328;50.042;8.238;2022-10-23T02:23:51;2.77;;;1.90;;
20340;SDS011;10328;50.042;8.238;2022-10-23T02:26:25;4.07;;;2.10;;
20340;SDS011;10328;50.042;8.238;2022-10-23T02:29:00;5.80;;;2.40;;
20340;SDS011;10328;50.042;8.238;2022-10-23T02:31:36;7.50;;;2.63;;
20340;SDS011;10328;50.042;8.238;2022-10-23T02:34:02;4.23;;;2.20;;
20340;SDS011;10328;50.042;8.238;2022-10-23T02:36:28;3.43;;;2.20;;
20340;SDS011;10328;50.042;8.238;2022-10-23T02:38:55;4.97;;;2.53;;
20340;SDS011;10328;50.042;8.238;2022-10-23T02:47:09;4.93;;;1.97;;
20340;SDS011;10328;50.042;8.238;2022-10-23T02:52:31;3.60;;;2.30;;
20340;SDS011;10328;50.042;8.238;2022-10-23T03:00:21;4.13;;;2.20;;
20340;SDS011;10328;50.042;8.238;2022-10-23T03:02:53;4.57;;;2.10;;
20340;SDS011;10328;50.042;8.238;2022-10-23T03:05:32;5.43;;;2.47;;
20340;SDS011;10328;50.042;8.238;2022-10-23T03:08:04;5.47;;;2.10;;
20340;SDS011;10328;50.042;8.238;2022-10-23T03:10:31;3.70;;;2.30;;
20340;SDS011;10328;50.042;8.238;2022-10-23T03:12:57;4.07;;;2.00;;
20340;SDS011;10328;50.042;8.238;2022-10-23T03:15:24;3.60;;;2.10;;
20340;SDS011;10328;50.042;8.238;2022-10-23T03:17:50;4.40;;;2.10;;
20340;SDS011;10328;50.042;8.238;2022-10-23T03:20:16;4.83;;;2.60;;
20340;SDS011;10328;50.042;8.238;2022-10-23T03:22:43;3.43;;;1.90;;
20340;SDS011;10328;50.042;8.238;2022-10-23T03:25:10;4.00;;;2.20;;
20340;SDS011;10328;50.042;8.238;2022-10-23T03:27:36;4.77;;;2.37;;
20340;SDS011;10328;50.042;8.238;2022-10-23T03:30:03;4.97;;;2.13;;
20340;SDS011;10328;50.042;8.238;2022-10-23T03:32:30;3.00;;;2.13;;
20340;SDS011;10328;50.042;8.238;2022-10-23T03:34:56;3.60;;;2.50;;
20340;SDS011;10328;50.042;8.238;2022-10-23T03:37:23;2.33;;;1.90;;
20340;SDS011;10328;50.042;8.238;2022-10-23T03:39:49;4.50;;;2.10;;
20340;SDS011;10328;50.042;8.238;2022-10-23T03:42:16;4.50;;;2.20;;
20340;SDS011;10328;50.042;8.238;2022-10-23T03:44:42;3.67;;;2.20;;
20340;SDS011;10328;50.042;8.238;2022-10-23T03:47:09;2.97;;;2.10;;
20340;SDS011;10328;50.042;8.238;2022-10-23T03:49:37;3.43;;;2.07;;
20340;SDS011;10328;50.042;8.238;2022-10-23T03:52:04;3.40;;;1.77;;
20340;SDS011;10328;50.042;8.238;2022-10-23T03:54:31;3.83;;;2.20;;
20340;SDS011;10328;50.042;8.238;2022-10-23T03:56:58;3.47;;;2.07;;
20340;SDS011;10328;50.042;8.238;2022-10-23T03:59:26;3.20;;;2.00;;
20340;SDS011;10328;50.042;8.238;2022-10-23T04:01:52;6.33;;;2.23;;
20340;SDS011;10328;50.042;8.238;2022-10-23T04:04:19;4.30;;;2.03;;
20340;SDS011;10328;50.042;8.238;2022-10-23T04:06:45;4.63;;;2.30;;
20340;SDS011;10328;50.042;8.238;2022-10-23T04:09:12;3.93;;;1.90;;
20340;SDS011;10328;50.042;8.238;2022-10-23T04:11:43;6.47;;;2.10;;
20340;SDS011;10328;50.042;8.238;2022-10-23T04:14:10;3.83;;;1.90;;
20340;SDS011;10328;50.042;8.238;2022-10-23T04:16:38;3.10;;;1.83;;
20340;SDS011;10328;50.042;8.238;2022-10-23T04:19:04;6.47;;;2.10;;
20340;SDS011;10328;50.042;8.238;2022-10-23T04:21:31;4.37;;;2.23;;
20340;SDS011;10328;50.042;8.238;2022-10-23T04:23:57;4.20;;;1.93;;
20340;SDS011;10328;50.042;8.238;2022-10-23T04:26:23;4.47;;;2.03;;
20340;SDS011;10328;50.042;8.238;2022-10-23T04:28:50;5.03;;;2.10;;
20340;SDS011;10328;50.042;8.238;2022-10-23T04:31:16;4.73;;;2.00;;
20340;SDS011;10328;50.042;8.238;2022-10-23T04:33:42;4.10;;;1.80;;
20340;SDS011;10328;50.042;8.238;2022-10-23T04:36:09;3.03;;;1.90;;
20340;SDS011;10328;50.042;8.238;2022-10-23T04:38:35;3.90;;;2.00;;
20340;SDS011;10328;50.042;8.238;2022-10-23T04:41:01;3.20;;;1.80;;
20340;SDS011;10328;50.042;8.238;2022-10-23T04:43:28;3.17;;;2.00;;
20340;SDS011;10328;50.042;8.238;2022-10-23T04:45:54;3.87;;;2.07;;
20340;SDS011;10328;50.042;8.238;2022-10-23T04:48:20;4.27;;;1.90;;
20340;SDS011;10328;50.042;8.238;2022-10-23T04:51:03;4.40;;;2.00;;
20340;SDS011;10328;50.042;8.238;2022-10-23T04:53:30;3.33;;;1.90;;
20340;SDS011;10328;50.042;8.238;2022-10-23T04:55:57;5.13;;;2.23;;
20340;SDS011;10328;50.042;8.238;2022-10-23T04:58:25;2.83;;;1.90;;
20340;SDS011;10328;50.042;8.238;2022-10-23T05:00:52;2.53;;;1.93;;
20340;SDS011;10328;50.042;8.238;2022-10-23T05:03:19;3.60;;;2.10;;
20340;SDS011;10328;50.042;8.238;2022-10-23T05:05:46;2.63;;;1.73;;
20340;SDS011;10328;50.042;8.238;2022-10-23T05:08:12;4.00;;;2.00;;
20340;SDS011;10328;50.042;8.238;2022-10-23T05:10:43;2.97;;;2.00;;
20340;SDS011;10328;50.042;8.238;2022-10-23T05:13:09;4.73;;;1.90;;
20340;SDS011;10328;50.042;8.238;2022-10-23T05:15:35;3.20;;;1.80;;
20340;SDS011;10328;50.042;8.238;2022-10-23T05:18:12;5.47;;;1.93;;
20340;SDS011;10328;50.042;8.238;2022-10-23T05:20:42;3.97;;;1.80;;
20340;SDS011;10328;50.042;8.238;2022-10-23T05:23:10;4.80;;;2.00;;
20340;SDS011;10328;50.042;8.238;2022-10-23T05:25:38;5.07;;;2.17;;
20340;SDS011;10328;50.042;8.238;2022-10-23T05:28:05;3.47;;;1.90;;
20340;SDS011;10328;50.042;8.238;2022-10-23T05:30:31;3.27;;;1.60;;
20340;SDS011;10328;50.042;8.238;2022-10-23T05:32:59;5.93;;;2.17;;
20340;SDS011;10328;50.042;8.238;2022-10-23T05:35:26;4.23;;;1.90;;
20340;SDS011;10328;50.042;8.238;2022-10-23T05:37:53;4.20;;;2.33;;
20340;SDS011;10328;50.042;8.238;2022-10-23T05:40:20;3.23;;;1.90;;
20340;SDS011;10328;50.042;8.238;2022-10-23T05:42:47;6.27;;;2.10;;
20340;SDS011;10328;50.042;8.238;2022-10-23T05:45:13;3.93;;;2.10;;
20340;SDS011;10328;50.042;8.238;2022-10-23T05:47:42;3.33;;;2.07;;
20340;SDS011;10328;50.042;8.238;2022-10-23T05:50:09;2.60;;;1.90;;
20340;SDS011;10328;50.042;8.238;2022-10-23T05:52:36;3.40;;;1.90;;
20340;SDS011;10328;50.042;8.238;2022-10-23T05:55:02;3.40;;;1.80;;
20340;SDS011;10328;50.042;8.238;2022-10-23T05:57:31;3.53;;;1.93;;
20340;SDS011;10328;50.042;8.238;2022-10-23T05:59:58;2.63;;;2.00;;
20340;SDS011;10328;50.042;8.238;2022-10-23T06:02:24;3.50;;;1.90;;
20340;SDS011;10328;50.042;8.238;2022-10-23T06:04:51;2.63;;;2.00;;
20340;SDS011;10328;50.042;8.238;2022-10-23T06:07:21;3.43;;;1.80;;
20340;SDS011;10328;50.042;8.238;2022-10-23T06:09:48;3.10;;;1.90;;
20340;SDS011;10328;50.042;8.238;2022-10-23T06:12:14;4.43;;;1.73;;
20340;SDS011;10328;50.042;8.238;2022-10-23T06:14:41;2.90;;;2.03;;
20340;SDS011;10328;50.042;8.238;2022-10-23T06:17:07;3.87;;;1.70;;
20340;SDS011;10328;50.042;8.238;2022-10-23T06:19:33;4.53;;;2.07;;
20340;SDS011;10328;50.042;8.238;2022-10-23T06:22:00;3.23;;;1.80;;
20340;SDS011;10328;50.042;8.238;2022-10-23T06:24:26;3.23;;;2.00;;
20340;SDS011;10328;50.042;8.238;2022-10-23T06:26:52;3.93;;;1.90;;
20340;SDS011;10328;50.042;8.238;2022-10-23T06:29:19;3.67;;;1.87;;
20340;SDS011;10328;50.042;8.238;2022-10-23T06:31:45;3.73;;;2.00;;
20340;SDS011;10328;50.042;8.238;2022-10-23T06:34:11;3.30;;;1.90;;
20340;SDS011;10328;50.042;8.238;2022-10-23T06:36:38;2.47;;;1.77;;
20340;SDS011;10328;50.042;8.238;2022-10-23T06:39:05;2.70;;;1.77;;
20340;SDS011;10328;50.042;8.238;2022-10-23T06:41:31;2.93;;;1.90;;
20340;SDS011;10328;50.042;8.238;2022-10-23T06:43:57;4.00;;;1.80;;
20340;SDS011;10328;50.042;8.238;2022-10-23T06:46:24;2.67;;;1.60;;
20340;SDS011;10328;50.042;8.238;2022-10-23T06:48:51;3.47;;;2.20;;
20340;SDS011;10328;50.042;8.238;2022-10-23T06:51:18;3.73;;;1.87;;
20340;SDS011;10328;50.042;8.238;2022-10-23T06:53:46;2.77;;;2.03;;
20340;SDS011;10328;50.042;8.238;2022-10-23T06:56:13;2.23;;;1.70;;
20340;SDS011;10328;50.042;8.238;2022-10-23T06:58:39;3.53;;;2.00;;
20340;SDS011;10328;50.042;8.238;2022-10-23T07:01:07;5.20;;;2.00;;
20340;SDS011;10328;50.042;8.238;2022-10-23T07:03:34;3.43;;;1.80;;
20340;SDS011;10328;50.042;8.238;2022-10-23T07:06:01;2.93;;;1.90;;
20340;SDS011;10328;50.042;8.238;2022-10-23T07:08:28;2.50;;;1.70;;
20340;SDS011;10328;50.042;8.238;2022-10-23T07:10:55;4.63;;;1.90;;
20340;SDS011;10328;50.042;8.238;2022-10-23T07:13:22;3.87;;;1.80;;
20340;SDS011;10328;50.042;8.238;2022-10-23T07:15:50;2.87;;;1.70;;
20340;SDS011;10328;50.042;8.238;2022-10-23T07:18:16;3.07;;;1.70;;
20340;SDS011;10328;50.042;8.238;2022-10-23T07:20:44;2.43;;;1.77;;
20340;SDS011;10328;50.042;8.238;2022-10-23T07:23:14;2.93;;;1.87;;
20340;SDS011;10328;50.042;8.238;2022-10-23T07:25:41;3.73;;;2.00;;
20340;SDS011;10328;50.042;8.238;2022-10-23T07:28:07;3.77;;;2.07;;
20340;SDS011;10328;50.042;8.238;2022-10-23T07:30:33;2.50;;;1.83;;
20340;SDS011;10328;50.042;8.238;2022-10-23T07:33:00;2.00;;;1.80;;
20340;SDS011;10328;50.042;8.238;2022-10-23T07:35:27;2.13;;;1.60;;
20340;SDS011;10328;50.042;8.238;2022-10-23T07:37:53;3.40;;;1.90;;
20340;SDS011;10328;50.042;8.238;2022-10-23T07:40:19;4.87;;;2.00;;
20340;SDS011;10328;50.042;8.238;2022-10-23T07:42:46;4.13;;;2.17;;
20340;SDS011;10328;50.042;8.238;2022-10-23T07:45:13;2.83;;;1.70;;
20340;SDS011;10328;50.042;8.238;2022-10-23T07:47:39;2.80;;;2.20;;
20340;SDS011;10328;50.042;8.238;2022-10-23T07:50:06;3.43;;;1.63;;
20340;SDS011;10328;50.042;8.238;2022-10-23T07:52:33;2.83;;;1.80;;
20340;SDS011;10328;50.042;8.238;2022-10-23T07:55:01;3.17;;;2.00;;
20340;SDS011;10328;50.042;8.238;2022-10-23T07:57:27;4.27;;;1.80;;
20340;SDS011;10328;50.042;8.238;2022-10-23T07:59:54;5.07;;;2.10;;
20340;SDS011;10328;50.042;8.238;2022-10-23T08:02:20;3.60;;;2.00;;
20340;SDS011;10328;50.042;8.238;2022-10-23T08:04:49;4.40;;;1.90;;
20340;SDS011;10328;50.042;8.238;2022-10-23T08:07:16;3.60;;;2.20;;
20340;SDS011;10328;50.042;8.238;2022-10-23T08:09:42;4.67;;;2.10;;
20340;SDS011;10328;50.042;8.238;2022-10-23T08:12:08;3.50;;;1.83;;
20340;SDS011;10328;50.042;8.238;2022-10-23T08:14:35;6.17;;;2.30;;
20340;SDS011;10328;50.042;8.238;2022-10-23T08:17:01;3.80;;;2.00;;
20340;SDS011;10328;50.042;8.238;2022-10-23T08:19:33;3.23;;;1.90;;
20340;SDS011;10328;50.042;8.238;2022-10-23T08:21:59;2.93;;;1.63;;
20340;SDS011;10328;50.042;8.238;2022-10-23T08:24:25;3.17;;;1.90;;
20340;SDS011;10328;50.042;8.238;2022-10-23T08:26:51;2.40;;;1.60;;
20340;SDS011;10328;50.042;8.238;2022-10-23T08:29:18;2.93;;;1.90;;
20340;SDS011;10328;50.042;8.238;2022-10-23T08:31:44;4.40;;;2.00;;
20340;SDS011;10328;50.042;8.238;2022-10-23T08:34:11;3.03;;;1.70;;
20340;SDS011;10328;50.042;8.238;2022-10-23T08:36:37;3.63;;;2.20;;
20340;SDS011;10328;50.042;8.238;2022-10-23T08:39:04;5.15;;;1.83;;
20340;SDS011;10328;50.042;8.238;2022-10-23T08:41:39;3.00;;;1.63;;
20340;SDS011;10328;50.042;8.238;2022-10-23T08:49:32;2.60;;;1.70;;
20340;SDS011;10328;50.042;8.238;2022-10-23T08:52:06;2.53;;;1.80;;
20340;SDS011;10328;50.042;8.238;2022-10-23T08:54:51;2.72;;;2.00;;
20340;SDS011;10328;50.042;8.238;2022-10-23T08:57:19;3.58;;;1.95;;
20340;SDS011;10328;50.042;8.238;2022-10-23T08:59:48;2.58;;;2.10;;
20340;SDS011;10328;50.042;8.238;2022-10-23T09:02:25;3.92;;;2.20;;
20340;SDS011;10328;50.042;8.238;2022-10-23T09:04:53;3.13;;;2.15;;
20340;SDS011;10328;50.042;8.238;2022-10-23T09:07:31;2.57;;;2.17;;
20340;SDS011;10328;50.042;8.238;2022-10-23T09:10:21;3.03;;;1.75;;
20340;SDS011;10328;50.042;8.238;2022-10-23T09:15:54;4.13;;;2.07;;
20340;SDS011;10328;50.042;8.238;2022-10-23T09:18:30;3.97;;;2.20;;
20340;SDS011;10328;50.042;8.238;2022-10-23T09:20:56;4.22;;;2.00;;
20340;SDS011;10328;50.042;8.238;2022-10-23T09:23:22;6.00;;;2.40;;
20340;SDS011;10328;50.042;8.238;2022-10-23T09:25:50;5.77;;;2.40;;
20340;SDS011;10328;50.042;8.238;2022-10-23T09:28:23;3.88;;;2.05;;
20340;SDS011;10328;50.042;8.238;2022-10-23T09:30:51;7.13;;;2.13;;
20340;SDS011;10328;50.042;8.238;2022-10-23T09:33:19;7.57;;;2.13;;
20340;SDS011;10328;50.042;8.238;2022-10-23T09:38:25;6.87;;;2.00;;
20340;SDS011;10328;50.042;8.238;2022-10-23T09:40:53;8.05;;;2.13;;
20340;SDS011;10328;50.042;8.238;2022-10-23T09:43:20;6.38;;;2.20;;
20340;SDS011;10328;50.042;8.238;2022-10-23T09:45:59;9.75;;;2.13;;
20340;SDS011;10328;50.042;8.238;2022-10-23T09:48:28;4.50;;;2.00;;
20340;SDS011;10328;50.042;8.238;2022-10-23T09:53:34;3.95;;;2.10;;
20340;SDS011;10328;50.042;8.238;2022-10-23T09:56:04;3.55;;;1.60;;
20340;SDS011;10328;50.042;8.238;2022-10-23T09:58:42;6.70;;;2.00;;
20340;SDS011;10328;50.042;8.238;2022-10-23T10:01:23;3.78;;;1.73;;
20340;SDS011;10328;50.042;8.238;2022-10-23T10:04:01;4.22;;;2.08;;
20340;SDS011;10328;50.042;8.238;2022-10-23T10:06:28;2.70;;;1.73;;
20340;SDS011;10328;50.042;8.238;2022-10-23T10:09:02;4.28;;;2.55;;
20340;SDS011;10328;50.042;8.238;2022-10-23T10:11:36;3.85;;;2.13;;
20340;SDS011;10328;50.042;8.238;2022-10-23T10:19:31;4.53;;;2.00;;
20340;SDS011;10328;50.042;8.238;2022-10-23T10:22:24;5.80;;;2.17;;
20340;SDS011;10328;50.042;8.238;2022-10-23T10:24:58;6.60;;;2.00;;
20340;SDS011;10328;50.042;8.238;2022-10-23T10:27:44;5.72;;;3.35;;
20340;SDS011;10328;50.042;8.238;2022-10-23T10:30:15;4.13;;;1.77;;
20340;SDS011;10328;50.042;8.238;2022-10-23T10:32:57;4.55;;;2.20;;
20340;SDS011;10328;50.042;8.238;2022-10-23T10:35:42;4.75;;;2.17;;
20340;SDS011;10328;50.042;8.238;2022-10-23T10:38:36;4.90;;;2.20;;
20340;SDS011;10328;50.042;8.238;2022-10-23T10:46:58;5.72;;;1.85;;
20340;SDS011;10328;50.042;8.238;2022-10-23T10:57:54;6.57;;;1.88;;
20340;SDS011;10328;50.042;8.238;2022-10-23T11:00:25;3.80;;;2.25;;
20340;SDS011;10328;50.042;8.238;2022-10-23T11:02:56;4.82;;;2.22;;
20340;SDS011;10328;50.042;8.238;2022-10-23T11:06:05;3.38;;;2.00;;
20340;SDS011;10328;50.042;8.238;2022-10-23T11:08:38;4.13;;;1.73;;
20340;SDS011;10328;50.042;8.238;2022-10-23T11:11:31;3.88;;;2.17;;
20340;SDS011;10328;50.042;8.238;2022-10-23T11:13:59;4.00;;;1.88;;
20340;SDS011;10328;50.042;8.238;2022-10-23T11:16:27;3.47;;;1.88;;
20340;SDS011;10328;50.042;8.238;2022-10-23T11:19:11;5.22;;;1.98;;
20340;SDS011;10328;50.042;8.238;2022-10-23T11:22:00;4.15;;;2.15;;
20340;SDS011;10328;50.042;8.238;2022-10-23T11:33:06;4.72;;;2.00;;
20340;SDS011;10328;50.042;8.238;2022-10-23T11:36:06;2.90;;;1.83;;
20340;SDS011;10328;50.042;8.238;2022-10-23T11:38:44;3.90;;;2.10;;
20340;SDS011;10328;50.042;8.238;2022-10-23T11:41:20;3.63;;;1.80;;
20340;SDS011;10328;50.042;8.238;2022-10-23T11:43:53;3.15;;;1.90;;
20340;SDS011;10328;50.042;8.238;2022-10-23T11:46:32;3.40;;;1.80;;
20340;SDS011;10328;50.042;8.238;2022-10-23T11:49:00;3.95;;;2.50;;
20340;SDS011;10328;50.042;8.238;2022-10-23T11:56:37;5.18;;;2.05;;
20340;SDS011;10328;50.042;8.238;2022-10-23T11:59:24;3.63;;;1.95;;
20340;SDS011;10328;50.042;8.238;2022-10-23T12:02:00;6.25;;;1.92;;
20340;SDS011;10328;50.042;8.238;2022-10-23T12:04:38;3.78;;;1.63;;
20340;SDS011;10328;50.042;8.238;2022-10-23T12:07:20;2.85;;;2.10;;
20340;SDS011;10328;50.042;8.238;2022-10-23T12:09:56;3.55;;;1.60;;
20340;SDS011;10328;50.042;8.238;2022-10-23T12:12:34;4.55;;;2.35;;
20340;SDS011;10328;50.042;8.238;2022-10-23T12:17:41;4.28;;;1.83;;
20340;SDS011;10328;50.042;8.238;2022-10-23T12:25:04;4.63;;;2.00;;
20340;SDS011;10328;50.042;8.238;2022-10-23T12:33:03;5.18;;;2.10;;
20340;SDS011;10328;50.042;8.238;2022-10-23T12:35:45;3.88;;;2.05;;
20340;SDS011;10328;50.042;8.238;2022-10-23T12:38:19;2.97;;;1.70;;
20340;SDS011;10328;50.042;8.238;2022-10-23T12:40:53;6.45;;;1.90;;
20340;SDS011;10328;50.042;8.238;2022-10-23T12:43:26;2.35;;;1.80;;
20340;SDS011;10328;50.042;8.238;2022-10-23T12:45:54;2.53;;;1.67;;
20340;SDS011;10328;50.042;8.238;2022-10-23T12:48:22;4.15;;;1.90;;
20340;SDS011;10328;50.042;8.238;2022-10-23T12:50:50;3.00;;;1.77;;
20340;SDS011;10328;50.042;8.238;2022-10-23T12:53:18;2.78;;;1.80;;
20340;SDS011;10328;50.042;8.238;2022-10-23T12:58:22;3.35;;;1.90;;
20340;SDS011;10328;50.042;8.238;2022-10-23T13:00:50;2.72;;;2.10;;
20340;SDS011;10328;50.042;8.238;2022-10-23T13:03:19;2.97;;;1.80;;
20340;SDS011;10328;50.042;8.238;2022-10-23T13:05:48;3.97;;;1.70;;
20340;SDS011;10328;50.042;8.238;2022-10-23T13:08:16;3.25;;;2.00;;
20340;SDS011;10328;50.042;8.238;2022-10-23T13:10:43;4.30;;;1.92;;
20340;SDS011;10328;50.042;8.238;2022-10-23T13:13:09;3.17;;;1.95;;
20340;SDS011;10328;50.042;8.238;2022-10-23T13:15:38;3.95;;;1.92;;
20340;SDS011;10328;50.042;8.238;2022-10-23T13:18:06;3.25;;;1.75;;
20340;SDS011;10328;50.042;8.238;2022-10-23T13:20:34;3.50;;;1.83;;
20340;SDS011;10328;50.042;8.238;2022-10-23T13:25:54;3.95;;;1.83;;
20340;SDS011;10328;50.042;8.238;2022-10-23T13:31:05;3.92;;;2.00;;
20340;SDS011;10328;50.042;8.238;2022-10-23T13:33:38;3.78;;;1.73;;
20340;SDS011;10328;50.042;8.238;2022-10-23T13:38:42;3.03;;;2.17;;
20340;SDS011;10328;50.042;8.238;2022-10-23T13:41:13;2.13;;;1.70;;
20340;SDS011;10328;50.042;8.238;2022-10-23T13:43:41;2.97;;;1.40;;
20340;SDS011;10328;50.042;8.238;2022-10-23T13:46:12;2.17;;;1.70;;
20340;SDS011;10328;50.042;8.238;2022-10-23T13:48:39;5.85;;;1.83;;
20340;SDS011;10328;50.042;8.238;2022-10-23T13:51:10;2.13;;;1.38;;
20340;SDS011;10328;50.042;8.238;2022-10-23T13:53:38;2.55;;;1.70;;
20340;SDS011;10328;50.042;8.238;2022-10-23T13:56:04;4.20;;;1.75;;
20340;SDS011;10328;50.042;8.238;2022-10-23T13:58:31;4.97;;;1.80;;
20340;SDS011;10328;50.042;8.238;2022-10-23T14:00:57;2.38;;;1.63;;
20340;SDS011;10328;50.042;8.238;2022-10-23T14:03:24;2.60;;;1.70;;
20340;SDS011;10328;50.042;8.238;2022-10-23T14:05:50;4.82;;;1.60;;
20340;SDS011;10328;50.042;8.238;2022-10-23T14:08:17;1.83;;;1.60;;
20340;SDS011;10328;50.042;8.238;2022-10-23T14:10:44;3.63;;;1.92;;
20340;SDS011;10328;50.042;8.238;2022-10-23T14:13:10;3.30;;;1.63;;
20340;SDS011;10328;50.042;8.238;2022-10-23T14:15:37;2.13;;;1.70;;
20340;SDS011;10328;50.042;8.238;2022-10-23T14:18:03;1.95;;;1.30;;
20340;SDS011;10328;50.042;8.238;2022-10-23T14:20:33;2.22;;;1.70;;
20340;SDS011;10328;50.042;8.238;2022-10-23T14:22:59;2.15;;;1.60;;
20340;SDS011;10328;50.042;8.238;2022-10-23T14:25:26;2.00;;;1.50;;
20340;SDS011;10328;50.042;8.238;2022-10-23T14:27:52;4.82;;;1.60;;
20340;SDS011;10328;50.042;8.238;2022-10-23T14:30:20;2.45;;;1.40;;
20340;SDS011;10328;50.042;8.238;2022-10-23T14:32:47;1.90;;;1.50;;
20340;SDS011;10328;50.042;8.238;2022-10-23T14:35:14;2.97;;;1.50;;
20340;SDS011;10328;50.042;8.238;2022-10-23T14:37:41;3.17;;;1.70;;
20340;SDS011;10328;50.042;8.238;2022-10-23T14:40:08;2.13;;;1.40;;
20340;SDS011;10328;50.042;8.238;2022-10-23T14:42:34;1.60;;;1.50;;
20340;SDS011;10328;50.042;8.238;2022-10-23T14:45:01;3.28;;;1.75;;
20340;SDS011;10328;50.042;8.238;2022-10-23T14:47:27;2.45;;;1.55;;
20340;SDS011;10328;50.042;8.238;2022-10-23T14:49:53;2.55;;;1.58;;
20340;SDS011;10328;50.042;8.238;2022-10-23T14:52:21;2.97;;;1.48;;
20340;SDS011;10328;50.042;8.238;2022-10-23T14:54:49;2.55;;;1.75;;
20340;SDS011;10328;50.042;8.238;2022-10-23T14:57:17;2.55;;;1.60;;
20340;SDS011;10328;50.042;8.238;2022-10-23T14:59:46;2.15;;;1.45;;
20340;SDS011;10328;50.042;8.238;2022-10-23T15:02:13;2.85;;;1.73;;
20340;SDS011;10328;50.042;8.238;2022-10-23T15:04:39;2.10;;;1.40;;
20340;SDS011;10328;50.042;8.238;2022-10-23T15:07:06;3.20;;;1.40;;
20340;SDS011;10328;50.042;8.238;2022-10-23T15:09:32;4.30;;;1.60;;
20340;SDS011;10328;50.042;8.238;2022-10-23T15:12:04;1.85;;;1.58;;
20340;SDS011;10328;50.042;8.238;2022-10-23T15:14:31;3.35;;;1.92;;
20340;SDS011;10328;50.042;8.238;2022-10-23T15:16:57;2.20;;;1.70;;
20340;SDS011;10328;50.042;8.238;2022-10-23T15:19:24;6.63;;;1.60;;
20340;SDS011;10328;50.042;8.238;2022-10-23T15:21:50;3.15;;;1.80;;
20340;SDS011;10328;50.042;8.238;2022-10-23T15:24:17;3.72;;;2.03;;
20340;SDS011;10328;50.042;8.238;2022-10-23T15:26:45;2.88;;;1.55;;
20340;SDS011;10328;50.042;8.238;2022-10-23T15:29:12;2.92;;;1.95;;
20340;SDS011;10328;50.042;8.238;2022-10-23T15:31:40;2.10;;;1.52;;
20340;SDS011;10328;50.042;8.238;2022-10-23T15:34:09;2.45;;;1.90;;
20340;SDS011;10328;50.042;8.238;2022-10-23T15:36:36;2.28;;;1.58;;
20340;SDS011;10328;50.042;8.238;2022-10-23T15:39:06;2.83;;;1.35;;
20340;SDS011;10328;50.042;8.238;2022-10-23T15:41:34;2.28;;;1.80;;
20340;SDS011;10328;50.042;8.238;2022-10-23T15:44:02;2.55;;;1.60;;
20340;SDS011;10328;50.042;8.238;2022-10-23T15:46:29;2.25;;;1.35;;
20340;SDS011;10328;50.042;8.238;2022-10-23T15:48:55;2.67;;;1.50;;
20340;SDS011;10328;50.042;8.238;2022-10-23T15:51:22;4.18;;;1.63;;
20340;SDS011;10328;50.042;8.238;2022-10-23T15:53:48;3.42;;;1.50;;
20340;SDS011;10328;50.042;8.238;2022-10-23T15:56:15;5.18;;;1.80;;
20340;SDS011;10328;50.042;8.238;2022-10-23T15:58:41;2.83;;;1.50;;
20340;SDS011;10328;50.042;8.238;2022-10-23T16:01:08;4.03;;;1.73;;
20340;SDS011;10328;50.042;8.238;2022-10-23T16:03:35;2.00;;;1.65;;
20340;SDS011;10328;50.042;8.238;2022-10-23T16:06:06;2.63;;;1.48;;
20340;SDS011;10328;50.042;8.238;2022-10-23T16:08:35;3.60;;;1.50;;
20340;SDS011;10328;50.042;8.238;2022-10-23T16:11:01;2.70;;;1.48;;
20340;SDS011;10328;50.042;8.238;2022-10-23T16:13:28;2.50;;;1.45;;
20340;SDS011;10328;50.042;8.238;2022-10-23T16:15:54;2.15;;;1.48;;
20340;SDS011;10328;50.042;8.238;2022-10-23T16:18:21;2.20;;;1.50;;
20340;SDS011;10328;50.042;8.238;2022-10-23T16:20:48;4.88;;;1.92;;
20340;SDS011;10328;50.042;8.238;2022-10-23T16:23:15;2.28;;;1.55;;
20340;SDS011;10328;50.042;8.238;2022-10-23T16:25:42;1.85;;;1.40;;
20340;SDS011;10328;50.042;8.238;2022-10-23T16:28:08;4.18;;;1.90;;
20340;SDS011;10328;50.042;8.238;2022-10-23T16:30:38;2.17;;;1.58;;
20340;SDS011;10328;50.042;8.238;2022-10-23T16:33:06;1.90;;;1.48;;
20340;SDS011;10328;50.042;8.238;2022-10-23T16:35:32;2.92;;;1.50;;
20340;SDS011;10328;50.042;8.238;2022-10-23T16:37:59;2.97;;;1.50;;
20340;SDS011;10328;50.042;8.238;2022-10-23T16:40:25;1.67;;;1.33;;
20340;SDS011;10328;50.042;8.238;2022-10-23T16:42:51;2.00;;;1.50;;